sensor_id;sensor_type;location;lat;lon;timestamp;P1;durP1;ratioP1;P2;durP2;ratioP2
75971;SDS011;64651;47.540;19.088;2023-04-01T00:02:28;4.95;;;1.30;;
75971;SDS011;64651;47.540;19.088;2023-04-01T00:07:30;4.97;;;1.27;;
75971;SDS011;64651;47.540;19.088;2023-04-01T00:12:33;4.85;;;1.10;;
75971;SDS011;64651;47.540;19.088;2023-04-01T00:17:36;4.70;;;1.20;;
75971;SDS011;64651;47.540;19.088;2023-04-01T00:22:39;6.57;;;1.60;;
75971;SDS011;64651;47.540;19.088;2023-04-01T00:27:42;7.22;;;1.77;;
75971;SDS011;64651;47.540;19.088;2023-04-01T00:32:44;5.35;;;1.30;;
75971;SDS011;64651;47.540;19.088;2023-04-01T00:37:47;5.35;;;1.33;;
75971;SDS011;64651;47.540;19.088;2023-04-01T00:42:50;5.25;;;1.23;;
75971;SDS011;64651;47.540;19.088;2023-04-01T00:47:52;6.20;;;1.17;;
75971;SDS011;64651;47.540;19.088;2023-04-01T00:52:55;5.70;;;1.05;;
75971;SDS011;64651;47.540;19.088;2023-04-01T00:57:57;5.80;;;1.23;;
75971;SDS011;64651;47.540;19.088;2023-04-01T01:03:01;5.90;;;1.35;;
75971;SDS011;64651;47.540;19.088;2023-04-01T01:13:20;6.23;;;1.00;;
75971;SDS011;64651;47.540;19.088;2023-04-01T01:39:25;5.73;;;1.00;;
75971;SDS011;64651;47.540;19.088;2023-04-01T01:44:30;4.93;;;1.30;;
75971;SDS011;64651;47.540;19.088;2023-04-01T01:49:35;5.85;;;1.30;;
75971;SDS011;64651;47.540;19.088;2023-04-01T01:54:49;4.75;;;1.12;;
75971;SDS011;64651;47.540;19.088;2023-04-01T01:59:54;6.10;;;1.48;;
75971;SDS011;64651;47.540;19.088;2023-04-01T02:05:00;4.73;;;1.20;;
75971;SDS011;64651;47.540;19.088;2023-04-01T02:10:05;5.12;;;1.20;;
75971;SDS011;64651;47.540;19.088;2023-04-01T02:15:09;6.68;;;1.30;;
75971;SDS011;64651;47.540;19.088;2023-04-01T02:20:18;4.45;;;1.00;;
75971;SDS011;64651;47.540;19.088;2023-04-01T02:25:23;4.37;;;0.80;;
75971;SDS011;64651;47.540;19.088;2023-04-01T02:30:30;4.13;;;0.80;;
75971;SDS011;64651;47.540;19.088;2023-04-01T02:35:35;5.05;;;0.70;;
75971;SDS011;64651;47.540;19.088;2023-04-01T02:40:47;4.10;;;0.50;;
75971;SDS011;64651;47.540;19.088;2023-04-01T02:45:52;2.75;;;0.50;;
75971;SDS011;64651;47.540;19.088;2023-04-01T02:50:55;4.00;;;0.80;;
75971;SDS011;64651;47.540;19.088;2023-04-01T02:55:57;5.07;;;0.90;;
75971;SDS011;64651;47.540;19.088;2023-04-01T03:01:00;3.65;;;0.80;;
75971;SDS011;64651;47.540;19.088;2023-04-01T03:06:09;3.83;;;0.82;;
75971;SDS011;64651;47.540;19.088;2023-04-01T03:11:14;4.25;;;0.80;;
75971;SDS011;64651;47.540;19.088;2023-04-01T03:16:16;4.30;;;0.73;;
75971;SDS011;64651;47.540;19.088;2023-04-01T03:21:22;5.53;;;0.87;;
75971;SDS011;64651;47.540;19.088;2023-04-01T03:26:25;4.55;;;1.27;;
75971;SDS011;64651;47.540;19.088;2023-04-01T03:31:30;3.17;;;0.70;;
75971;SDS011;64651;47.540;19.088;2023-04-01T03:36:33;3.37;;;0.77;;
75971;SDS011;64651;47.540;19.088;2023-04-01T03:41:36;3.78;;;0.90;;
75971;SDS011;64651;47.540;19.088;2023-04-01T03:46:40;7.13;;;0.90;;
75971;SDS011;64651;47.540;19.088;2023-04-01T03:51:43;5.82;;;0.80;;
75971;SDS011;64651;47.540;19.088;2023-04-01T03:56:45;5.60;;;0.80;;
75971;SDS011;64651;47.540;19.088;2023-04-01T04:01:48;3.78;;;0.80;;
75971;SDS011;64651;47.540;19.088;2023-04-01T04:06:50;4.07;;;0.90;;
75971;SDS011;64651;47.540;19.088;2023-04-01T04:11:53;3.60;;;0.80;;
75971;SDS011;64651;47.540;19.088;2023-04-01T04:16:55;4.12;;;0.73;;
75971;SDS011;64651;47.540;19.088;2023-04-01T04:21:57;3.72;;;0.80;;
75971;SDS011;64651;47.540;19.088;2023-04-01T04:27:02;3.78;;;0.80;;
75971;SDS011;64651;47.540;19.088;2023-04-01T04:32:05;6.32;;;0.90;;
75971;SDS011;64651;47.540;19.088;2023-04-01T04:37:07;4.00;;;0.77;;
75971;SDS011;64651;47.540;19.088;2023-04-01T04:42:10;4.28;;;0.75;;
75971;SDS011;64651;47.540;19.088;2023-04-01T04:47:12;4.80;;;0.90;;
75971;SDS011;64651;47.540;19.088;2023-04-01T04:52:16;4.85;;;0.95;;
75971;SDS011;64651;47.540;19.088;2023-04-01T04:57:18;5.72;;;1.02;;
75971;SDS011;64651;47.540;19.088;2023-04-01T05:02:23;5.77;;;1.10;;
75971;SDS011;64651;47.540;19.088;2023-04-01T05:07:27;5.37;;;1.00;;
75971;SDS011;64651;47.540;19.088;2023-04-01T05:12:29;5.07;;;1.10;;
75971;SDS011;64651;47.540;19.088;2023-04-01T05:17:31;5.10;;;1.30;;
75971;SDS011;64651;47.540;19.088;2023-04-01T05:22:35;5.30;;;1.10;;
75971;SDS011;64651;47.540;19.088;2023-04-01T05:27:37;6.93;;;1.00;;
75971;SDS011;64651;47.540;19.088;2023-04-01T05:32:39;4.35;;;0.90;;
75971;SDS011;64651;47.540;19.088;2023-04-01T05:37:42;4.97;;;1.10;;
75971;SDS011;64651;47.540;19.088;2023-04-01T05:42:44;4.55;;;1.10;;
75971;SDS011;64651;47.540;19.088;2023-04-01T05:47:46;4.87;;;0.90;;
75971;SDS011;64651;47.540;19.088;2023-04-01T05:52:48;5.43;;;1.10;;
75971;SDS011;64651;47.540;19.088;2023-04-01T05:57:51;4.65;;;1.02;;
75971;SDS011;64651;47.540;19.088;2023-04-01T06:02:53;4.62;;;0.90;;
75971;SDS011;64651;47.540;19.088;2023-04-01T06:07:58;5.62;;;1.20;;
75971;SDS011;64651;47.540;19.088;2023-04-01T06:29:02;6.07;;;1.10;;
75971;SDS011;64651;47.540;19.088;2023-04-01T06:40:12;6.30;;;1.30;;
75971;SDS011;64651;47.540;19.088;2023-04-01T06:50:52;5.45;;;1.58;;
75971;SDS011;64651;47.540;19.088;2023-04-01T06:56:17;5.35;;;1.20;;
75971;SDS011;64651;47.540;19.088;2023-04-01T07:01:26;5.68;;;1.40;;
75971;SDS011;64651;47.540;19.088;2023-04-01T07:06:52;5.90;;;1.23;;
75971;SDS011;64651;47.540;19.088;2023-04-01T07:11:59;6.90;;;1.10;;
75971;SDS011;64651;47.540;19.088;2023-04-01T07:17:20;6.35;;;1.35;;
75971;SDS011;64651;47.540;19.088;2023-04-01T07:22:33;6.32;;;1.37;;
75971;SDS011;64651;47.540;19.088;2023-04-01T07:27:42;5.72;;;1.27;;
75971;SDS011;64651;47.540;19.088;2023-04-01T07:38:52;5.93;;;1.00;;
75971;SDS011;64651;47.540;19.088;2023-04-01T07:54:35;5.07;;;1.20;;
75971;SDS011;64651;47.540;19.088;2023-04-01T07:59:53;4.57;;;0.93;;
75971;SDS011;64651;47.540;19.088;2023-04-01T08:10:34;4.60;;;1.20;;
75971;SDS011;64651;47.540;19.088;2023-04-01T08:21:25;4.47;;;1.30;;
75971;SDS011;64651;47.540;19.088;2023-04-01T08:26:34;4.47;;;1.23;;
75971;SDS011;64651;47.540;19.088;2023-04-01T08:31:48;4.20;;;1.33;;
75971;SDS011;64651;47.540;19.088;2023-04-01T08:36:58;4.68;;;1.45;;
75971;SDS011;64651;47.540;19.088;2023-04-01T08:53:33;5.78;;;1.40;;
75971;SDS011;64651;47.540;19.088;2023-04-01T09:37:19;6.30;;;2.00;;
75971;SDS011;64651;47.540;19.088;2023-04-01T09:48:11;5.53;;;1.65;;
75971;SDS011;64651;47.540;19.088;2023-04-01T09:53:24;5.53;;;1.70;;
75971;SDS011;64651;47.540;19.088;2023-04-01T09:58:43;6.37;;;1.87;;
75971;SDS011;64651;47.540;19.088;2023-04-01T10:15:00;6.65;;;1.85;;
75971;SDS011;64651;47.540;19.088;2023-04-01T10:26:10;6.15;;;1.80;;
75971;SDS011;64651;47.540;19.088;2023-04-01T10:31:20;7.62;;;2.10;;
75971;SDS011;64651;47.540;19.088;2023-04-01T10:36:54;6.67;;;1.80;;
75971;SDS011;64651;47.540;19.088;2023-04-01T11:10:01;6.55;;;2.60;;
75971;SDS011;64651;47.540;19.088;2023-04-01T12:10:20;8.43;;;1.40;;
75971;SDS011;64651;47.540;19.088;2023-04-01T12:54:19;6.23;;;1.97;;
75971;SDS011;64651;47.540;19.088;2023-04-01T13:25:40;5.35;;;2.37;;
75971;SDS011;64651;47.540;19.088;2023-04-01T13:36:36;5.45;;;2.30;;
75971;SDS011;64651;47.540;19.088;2023-04-01T13:42:31;5.25;;;2.15;;
75971;SDS011;64651;47.540;19.088;2023-04-01T13:52:52;6.12;;;2.50;;
75971;SDS011;64651;47.540;19.088;2023-04-01T14:09:33;6.30;;;2.45;;
75971;SDS011;64651;47.540;19.088;2023-04-01T14:20:05;5.35;;;1.75;;
75971;SDS011;64651;47.540;19.088;2023-04-01T14:35:38;5.12;;;2.12;;
75971;SDS011;64651;47.540;19.088;2023-04-01T14:40:51;5.20;;;2.00;;
75971;SDS011;64651;47.540;19.088;2023-04-01T14:51:29;5.63;;;2.27;;
75971;SDS011;64651;47.540;19.088;2023-04-01T15:01:43;5.55;;;2.58;;
75971;SDS011;64651;47.540;19.088;2023-04-01T15:07:21;5.60;;;2.60;;
75971;SDS011;64651;47.540;19.088;2023-04-01T15:23:25;4.68;;;1.83;;
75971;SDS011;64651;47.540;19.088;2023-04-01T15:29:18;5.72;;;2.10;;
75971;SDS011;64651;47.540;19.088;2023-04-01T15:45:05;5.33;;;1.70;;
75971;SDS011;64651;47.540;19.088;2023-04-01T16:01:11;3.63;;;1.20;;
75971;SDS011;64651;47.540;19.088;2023-04-01T16:22:40;3.35;;;1.00;;
75971;SDS011;64651;47.540;19.088;2023-04-01T16:27:44;5.20;;;1.10;;
75971;SDS011;64651;47.540;19.088;2023-04-01T16:33:00;3.72;;;0.93;;
75971;SDS011;64651;47.540;19.088;2023-04-01T16:38:26;6.67;;;2.10;;
75971;SDS011;64651;47.540;19.088;2023-04-01T16:43:39;7.07;;;1.85;;
75971;SDS011;64651;47.540;19.088;2023-04-01T16:48:52;6.65;;;1.83;;
75971;SDS011;64651;47.540;19.088;2023-04-01T16:54:26;13.40;;;5.37;;
75971;SDS011;64651;47.540;19.088;2023-04-01T17:00:15;6.15;;;1.77;;
75971;SDS011;64651;47.540;19.088;2023-04-01T17:05:06;7.53;;;1.70;;
75971;SDS011;64651;47.540;19.088;2023-04-01T17:15:43;13.45;;;4.07;;
75971;SDS011;64651;47.540;19.088;2023-04-01T17:21:14;10.93;;;4.05;;
75971;SDS011;64651;47.540;19.088;2023-04-01T17:59:07;7.60;;;1.90;;
75971;SDS011;64651;47.540;19.088;2023-04-01T18:04:36;6.20;;;1.52;;
75971;SDS011;64651;47.540;19.088;2023-04-01T18:15:27;7.22;;;2.12;;
75971;SDS011;64651;47.540;19.088;2023-04-01T18:20:34;7.75;;;2.37;;
75971;SDS011;64651;47.540;19.088;2023-04-01T18:25:50;9.83;;;3.43;;
75971;SDS011;64651;47.540;19.088;2023-04-01T18:36:09;7.40;;;2.03;;
75971;SDS011;64651;47.540;19.088;2023-04-01T18:46:53;6.53;;;1.70;;
75971;SDS011;64651;47.540;19.088;2023-04-01T18:57:49;7.47;;;2.40;;
75971;SDS011;64651;47.540;19.088;2023-04-01T19:02:57;8.48;;;2.70;;
75971;SDS011;64651;47.540;19.088;2023-04-01T19:13:35;8.57;;;3.00;;
75971;SDS011;64651;47.540;19.088;2023-04-01T19:30:32;6.72;;;1.90;;
75971;SDS011;64651;47.540;19.088;2023-04-01T19:46:48;6.47;;;2.23;;
75971;SDS011;64651;47.540;19.088;2023-04-01T20:02:50;7.40;;;2.28;;
75971;SDS011;64651;47.540;19.088;2023-04-01T20:08:15;7.72;;;2.50;;
75971;SDS011;64651;47.540;19.088;2023-04-01T20:34:21;9.10;;;3.20;;
75971;SDS011;64651;47.540;19.088;2023-04-01T20:44:40;10.18;;;3.62;;
75971;SDS011;64651;47.540;19.088;2023-04-01T20:49:52;9.02;;;3.30;;
75971;SDS011;64651;47.540;19.088;2023-04-01T21:27:38;10.77;;;3.85;;
75971;SDS011;64651;47.540;19.088;2023-04-01T21:33:02;9.37;;;3.47;;
75971;SDS011;64651;47.540;19.088;2023-04-01T21:38:23;10.02;;;3.80;;
75971;SDS011;64651;47.540;19.088;2023-04-01T21:43:39;10.15;;;3.90;;
75971;SDS011;64651;47.540;19.088;2023-04-01T21:49:15;10.73;;;3.10;;
75971;SDS011;64651;47.540;19.088;2023-04-01T22:05:39;6.57;;;1.55;;
75971;SDS011;64651;47.540;19.088;2023-04-01T22:10:54;6.72;;;1.75;;
75971;SDS011;64651;47.540;19.088;2023-04-01T22:32:02;6.35;;;1.37;;
75971;SDS011;64651;47.540;19.088;2023-04-01T22:54:05;6.40;;;2.10;;
75971;SDS011;64651;47.540;19.088;2023-04-01T23:04:30;6.60;;;1.90;;
75971;SDS011;64651;47.540;19.088;2023-04-01T23:09:35;6.30;;;1.92;;
75971;SDS011;64651;47.540;19.088;2023-04-01T23:14:41;6.30;;;1.77;;
75971;SDS011;64651;47.540;19.088;2023-04-01T23:25:04;7.05;;;2.03;;
75971;SDS011;64651;47.540;19.088;2023-04-01T23:35:53;5.47;;;1.60;;
75971;SDS011;64651;47.540;19.088;2023-04-01T23:40:55;6.78;;;2.00;;
75971;SDS011;64651;47.540;19.088;2023-04-01T23:46:01;5.50;;;1.50;;
75971;SDS011;64651;47.540;19.088;2023-04-01T23:51:46;5.90;;;1.52;;
75971;SDS011;64651;47.540;19.088;2023-04-01T23:56:41;5.53;;;1.30;;
